Time;durP1;ratioP1;P1;durP2;ratioP2;P2;SDS_P1;SDS_P2;PMS_P1;PMS_P2;Temp;Humidity;BMP_temperature;BMP_pressure;BME280_temperature;BME280_humidity;BME280_pressure;Samples;Min_cycle;Max_cycle;Signal;HPM_P1;HPM_P2
2022/08/17 00:00:43;;;;;;;;;;;20.30;53.10;;;;;;5143016;27;19923;-45
2022/08/17 00:03:15;;;;;;;;;;;20.00;52.70;;;;;;5149151;27;20041;-48
2022/08/17 00:05:42;;;;;;;;;;;20.00;51.60;;;;;;5140131;27;20064;-47
2022/08/17 00:08:08;;;;;;;;;;;19.80;51.40;;;;;;5141528;27;19931;-47
2022/08/17 00:10:34;;;;;;;;;;;19.90;53.50;;;;;;5149030;27;19929;-46
2022/08/17 00:13:04;;;;;;;;;;;20.60;57.70;;;;;;5143424;27;20323;-46
2022/08/17 00:15:29;;;;;;;;;;;21.40;57.70;;;;;;5143477;27;20022;-53
2022/08/17 00:17:55;;;;;;;;;;;21.20;55.80;;;;;;5148929;27;20398;-46
2022/08/17 00:20:21;;;;;;;;;;;20.60;54.20;;;;;;5143431;27;20581;-45
2022/08/17 00:22:47;;;;;;;;;;;20.50;53.20;;;;;;5148189;27;19934;-50
2022/08/17 00:25:14;;;;;;;;;;;20.20;52.20;;;;;;5139075;27;19971;-47
2022/08/17 00:27:40;;;;;;;;;;;20.10;51.80;;;;;;5142871;27;19937;-48
2022/08/17 00:30:06;;;;;;;;;;;19.90;51.20;;;;;;5148669;27;19923;-46
2022/08/17 00:32:35;;;;;;;;;;;19.60;51.40;;;;;;5143084;27;19927;-46
2022/08/17 00:35:03;;;;;;;;;;;20.30;56.50;;;;;;5143079;27;19990;-48
2022/08/17 00:37:29;;;;;;;;;;;21.00;58.00;;;;;;5148216;27;19923;-46
2022/08/17 00:39:54;;;;;;;;;;;21.80;56.30;;;;;;5142977;27;19946;-46
2022/08/17 00:42:20;;;;;;;;;;;20.90;55.10;;;;;;5145072;27;19927;-48
2022/08/17 00:44:46;;;;;;;;;;;20.30;54.20;;;;;;5140863;27;19934;-46
2022/08/17 00:47:12;;;;;;;;;;;20.30;52.80;;;;;;5142742;27;19923;-45
2022/08/17 00:49:37;;;;;;;;;;;20.20;51.90;;;;;;5148435;27;19929;-45
2022/08/17 00:52:07;;;;;;;;;;;19.90;51.80;;;;;;5142729;27;19933;-48
2022/08/17 00:54:34;;;;;;;;;;;19.90;53.80;;;;;;5124795;27;19934;-46
2022/08/17 00:57:10;;;;;;;;;;;20.70;57.90;;;;;;5129769;27;19930;-46
2022/08/17 00:59:36;;;;;;;;;;;21.50;57.30;;;;;;5115673;27;19972;-48
2022/08/17 01:02:02;;;;;;;;;;;21.20;55.20;;;;;;5138198;27;19933;-48
2022/08/17 01:04:28;;;;;;;;;;;20.50;54.30;;;;;;5147650;27;19927;-46
2022/08/17 01:06:54;;;;;;;;;;;20.30;53.00;;;;;;5142465;27;19923;-45
2022/08/17 01:09:20;;;;;;;;;;;20.10;52.40;;;;;;5148112;27;20445;-46
2022/08/17 01:11:47;;;;;;;;;;;20.00;51.60;;;;;;5123873;27;19923;-47
2022/08/17 01:14:13;;;;;;;;;;;20.00;53.10;;;;;;5142372;27;20349;-45
2022/08/17 01:16:39;;;;;;;;;;;20.60;57.80;;;;;;5147757;27;19929;-45
2022/08/17 01:19:06;;;;;;;;;;;21.50;57.20;;;;;;5139034;27;19926;-45
2022/08/17 01:21:35;;;;;;;;;;;21.20;55.60;;;;;;5122047;27;20084;-45
2022/08/17 01:24:01;;;;;;;;;;;20.70;54.00;;;;;;5129358;27;19923;-46
2022/08/17 01:26:27;;;;;;;;;;;20.30;53.00;;;;;;5142385;27;20401;-46
2022/08/17 01:28:52;;;;;;;;;;;20.30;51.80;;;;;;5146397;27;19934;-52
2022/08/17 01:31:18;;;;;;;;;;;20.00;51.60;;;;;;5125759;27;19923;-46
2022/08/17 01:33:44;;;;;;;;;;;19.80;51.20;;;;;;5142481;27;20378;-47
2022/08/17 01:36:10;;;;;;;;;;;20.30;57.00;;;;;;5147646;27;20396;-47
2022/08/17 01:38:36;;;;;;;;;;;21.00;58.20;;;;;;5137192;27;19930;-48
2022/08/17 01:41:03;;;;;;;;;;;21.80;56.30;;;;;;5141765;27;19923;-46
2022/08/17 01:43:33;;;;;;;;;;;21.00;54.80;;;;;;5147635;27;19924;-45
2022/08/17 01:45:59;;;;;;;;;;;20.40;53.60;;;;;;5142149;27;19940;-46
2022/08/17 01:48:28;;;;;;;;;;;20.20;52.90;;;;;;5142072;27;20054;-46
2022/08/17 01:50:54;;;;;;;;;;;20.10;51.90;;;;;;5147610;27;19927;-45
2022/08/17 01:53:24;;;;;;;;;;;19.80;51.60;;;;;;5142033;27;20442;-47
2022/08/17 01:55:51;;;;;;;;;;;19.80;51.10;;;;;;5143993;27;20271;-48
2022/08/17 01:58:20;;;;;;;;;;;20.40;56.80;;;;;;5139733;27;19934;-46
2022/08/17 02:00:47;;;;;;;;;;;21.10;58.30;;;;;;5142044;27;19931;-45
2022/08/17 02:03:12;;;;;;;;;;;21.50;56.20;;;;;;5147599;27;19945;-45
2022/08/17 02:05:38;;;;;;;;;;;20.70;54.90;;;;;;5141879;27;19923;-45
2022/08/17 02:08:06;;;;;;;;;;;20.40;53.40;;;;;;5141990;27;19945;-46
2022/08/17 02:10:32;;;;;;;;;;;19.80;53.30;;;;;;5147483;27;19923;-45
2022/08/17 02:12:57;;;;;;;;;;;19.90;52.20;;;;;;5141599;27;19923;-49
2022/08/17 02:15:23;;;;;;;;;;;19.70;51.90;;;;;;5139403;27;20374;-56
2022/08/17 02:17:49;;;;;;;;;;;20.20;56.10;;;;;;5145028;27;20441;-46
2022/08/17 02:20:15;;;;;;;;;;;21.00;58.00;;;;;;5141663;27;19923;-49
2022/08/17 02:22:41;;;;;;;;;;;21.80;56.80;;;;;;5147102;27;20017;-46
2022/08/17 02:25:08;;;;;;;;;;;20.90;55.40;;;;;;5125963;27;19923;-46
2022/08/17 02:27:34;;;;;;;;;;;20.60;53.90;;;;;;5145531;27;20074;-48
2022/08/17 02:30:00;;;;;;;;;;;20.30;52.80;;;;;;5151001;27;19922;-45
2022/08/17 02:32:26;;;;;;;;;;;20.10;52.00;;;;;;5123732;27;19930;-47
2022/08/17 02:34:52;;;;;;;;;;;19.80;51.80;;;;;;5143240;27;20064;-48
2022/08/17 02:37:18;;;;;;;;;;;19.80;52.20;;;;;;5150677;27;20014;-45
2022/08/17 02:39:44;;;;;;;;;;;20.30;57.70;;;;;;5145245;27;19927;-47
2022/08/17 02:42:11;;;;;;;;;;;21.30;58.20;;;;;;5151091;27;19984;-47
2022/08/17 02:44:37;;;;;;;;;;;21.60;56.30;;;;;;5145287;27;20009;-46
2022/08/17 02:47:03;;;;;;;;;;;20.70;55.00;;;;;;5145254;27;20374;-46
2022/08/17 02:49:29;;;;;;;;;;;20.30;53.70;;;;;;5150701;27;19966;-45
2022/08/17 02:51:55;;;;;;;;;;;20.30;52.50;;;;;;5140059;27;20209;-46
2022/08/17 02:54:21;;;;;;;;;;;19.90;52.10;;;;;;5144670;27;20366;-46
2022/08/17 02:56:47;;;;;;;;;;;19.60;52.30;;;;;;5150446;27;19976;-48
2022/08/17 02:59:12;;;;;;;;;;;19.90;54.90;;;;;;5144998;27;19923;-48
2022/08/17 03:01:38;;;;;;;;;;;20.70;58.30;;;;;;5150260;27;19935;-45
2022/08/17 03:04:04;;;;;;;;;;;21.40;57.90;;;;;;5144788;27;19948;-45
2022/08/17 03:06:30;;;;;;;;;;;21.40;55.90;;;;;;5144689;27;19923;-46
2022/08/17 03:08:56;;;;;;;;;;;20.70;54.80;;;;;;5147387;27;20022;-51
2022/08/17 03:11:22;;;;;;;;;;;20.30;53.50;;;;;;5142496;27;19965;-47
2022/08/17 03:13:48;;;;;;;;;;;20.00;52.60;;;;;;5144574;27;20169;-45
2022/08/17 03:16:14;;;;;;;;;;;19.90;52.00;;;;;;5150222;27;19936;-46
2022/08/17 03:18:39;;;;;;;;;;;19.80;51.40;;;;;;5144530;27;19923;-46
2022/08/17 03:21:07;;;;;;;;;;;20.20;56.00;;;;;;5149755;27;19980;-53
2022/08/17 03:23:39;;;;;;;;;;;20.80;58.50;;;;;;5145950;27;19933;-45
2022/08/17 03:26:09;;;;;;;;;;;21.70;57.30;;;;;;5144290;27;19927;-49
2022/08/17 03:28:36;;;;;;;;;;;21.00;55.20;;;;;;5144598;27;19929;-47
2022/08/17 03:31:01;;;;;;;;;;;20.50;53.60;;;;;;5143631;27;20513;-45
2022/08/17 03:33:27;;;;;;;;;;;20.20;52.90;;;;;;5125661;27;19922;-45
2022/08/17 03:35:53;;;;;;;;;;;20.00;52.10;;;;;;5148437;27;19930;-47
2022/08/17 03:38:19;;;;;;;;;;;19.90;51.60;;;;;;5144104;27;19927;-46
2022/08/17 03:40:45;;;;;;;;;;;19.90;51.10;;;;;;5144182;27;19931;-46
2022/08/17 03:43:11;;;;;;;;;;;19.80;53.30;;;;;;5149544;27;19974;-46
2022/08/17 03:56:42;;;;;;;;;;;20.30;52.80;;;;;;5143686;27;20032;-45
2022/08/17 03:59:12;;;;;;;;;;;20.20;51.70;;;;;;5149141;27;19923;-46
2022/08/17 04:01:37;;;;;;;;;;;19.80;51.60;;;;;;5143646;27;19927;-44
2022/08/17 04:04:03;;;;;;;;;;;19.80;51.30;;;;;;5140923;27;20775;-50
2022/08/17 04:06:29;;;;;;;;;;;19.90;53.00;;;;;;5146806;27;19930;-46
2022/08/17 04:08:55;;;;;;;;;;;20.60;57.50;;;;;;5143348;27;19935;-45
2022/08/17 04:11:21;;;;;;;;;;;21.30;57.50;;;;;;5148965;27;20366;-46
2022/08/17 04:13:46;;;;;;;;;;;21.40;55.60;;;;;;5143353;27;20275;-45
2022/08/17 04:16:12;;;;;;;;;;;20.60;54.30;;;;;;5143300;27;19927;-46
2022/08/17 04:18:38;;;;;;;;;;;20.30;53.10;;;;;;5148770;27;19934;-47
2022/08/17 04:21:04;;;;;;;;;;;20.00;52.20;;;;;;5143390;27;19923;-48
2022/08/17 04:23:32;;;;;;;;;;;19.90;52.00;;;;;;5138598;27;20173;-49
2022/08/17 04:25:58;;;;;;;;;;;20.00;55.80;;;;;;5148049;27;20014;-51
2022/08/17 04:28:24;;;;;;;;;;;20.90;58.10;;;;;;5143310;27;19988;-48
2022/08/17 04:30:49;;;;;;;;;;;21.70;56.70;;;;;;5146714;27;20323;-54
2022/08/17 04:33:16;;;;;;;;;;;20.90;54.80;;;;;;5145460;27;19938;-45
2022/08/17 04:35:46;;;;;;;;;;;20.50;53.40;;;;;;5142959;27;20033;-46
2022/08/17 04:38:13;;;;;;;;;;;20.30;52.60;;;;;;5148247;27;20009;-49
2022/08/17 04:43:24;;;;;;;;;;;19.80;51.40;;;;;;5137049;27;19972;-46
2022/08/17 04:45:51;;;;;;;;;;;19.70;51.40;;;;;;5148136;27;19936;-45
2022/08/17 04:48:17;;;;;;;;;;;20.30;56.70;;;;;;5142385;27;20394;-47
2022/08/17 04:50:43;;;;;;;;;;;21.00;58.30;;;;;;5120722;27;19930;-46
2022/08/17 04:53:09;;;;;;;;;;;21.70;56.20;;;;;;5148162;27;19927;-48
2022/08/17 04:55:35;;;;;;;;;;;20.80;55.00;;;;;;5142655;27;19976;-45
2022/08/17 04:58:01;;;;;;;;;;;20.60;53.50;;;;;;5143771;27;19923;-56
2022/08/17 05:00:26;;;;;;;;;;;20.20;52.60;;;;;;5142317;27;19980;-48
2022/08/17 05:02:53;;;;;;;;;;;19.90;52.30;;;;;;5141963;27;19923;-46
2022/08/17 05:05:23;;;;;;;;;;;19.70;52.20;;;;;;5147991;27;19935;-47
2022/08/17 05:07:53;;;;;;;;;;;20.30;57.10;;;;;;5142689;27;20382;-46
2022/08/17 05:10:22;;;;;;;;;;;21.10;58.10;;;;;;5142369;27;19949;-45
2022/08/17 05:12:55;;;;;;;;;;;21.50;56.20;;;;;;5147947;27;19927;-45
2022/08/17 05:15:21;;;;;;;;;;;20.70;54.80;;;;;;5142377;27;20335;-46
2022/08/17 05:17:47;;;;;;;;;;;20.30;53.50;;;;;;5139336;27;19923;-49
2022/08/17 05:20:13;;;;;;;;;;;19.90;52.70;;;;;;5145452;27;20366;-46
2022/08/17 05:22:59;;;;;;;;;;;20.00;51.70;;;;;;5142338;27;19997;-46
2022/08/17 05:25:29;;;;;;;;;;;19.80;51.60;;;;;;5142111;27;19923;-47
2022/08/17 05:27:54;;;;;;;;;;;20.50;57.70;;;;;;5147842;27;20305;-47
2022/08/17 05:30:20;;;;;;;;;;;21.30;57.90;;;;;;5142232;27;19927;-46
2022/08/17 05:32:52;;;;;;;;;;;21.60;56.00;;;;;;5145740;27;19958;-55
2022/08/17 05:35:18;;;;;;;;;;;20.80;54.70;;;;;;5146606;27;20471;-49
2022/08/17 05:37:44;;;;;;;;;;;20.30;53.50;;;;;;5137784;27;19927;-46
2022/08/17 05:40:10;;;;;;;;;;;20.20;52.50;;;;;;5147284;27;19923;-47
2022/08/17 05:42:36;;;;;;;;;;;19.80;52.20;;;;;;5142046;27;20366;-45
2022/08/17 05:45:02;;;;;;;;;;;19.90;51.40;;;;;;5142187;27;19969;-45
2022/08/17 05:47:27;;;;;;;;;;;20.00;53.70;;;;;;5147721;27;19929;-45
2022/08/17 05:49:53;;;;;;;;;;;20.70;58.10;;;;;;5118868;27;19927;-45
2022/08/17 05:52:45;;;;;;;;;;;21.40;57.80;;;;;;5141907;27;19923;-47
2022/08/17 05:55:11;;;;;;;;;;;21.30;55.90;;;;;;5139927;27;19979;-48
2022/08/17 05:57:37;;;;;;;;;;;20.80;54.10;;;;;;5140706;27;19923;-45
2022/08/17 06:00:12;;;;;;;;;;;20.40;53.20;;;;;;5145051;27;19923;-46
2022/08/17 06:02:46;;;;;;;;;;;20.10;52.60;;;;;;5151794;27;20374;-47
2022/08/17 06:05:31;;;;;;;;;;;20.10;51.50;;;;;;5127541;27;19979;-47
2022/08/17 06:08:16;;;;;;;;;;;19.80;51.70;;;;;;5145152;27;20168;-46
2022/08/17 06:10:55;;;;;;;;;;;19.60;51.40;;;;;;5151243;27;20015;-46
2022/08/17 06:13:34;;;;;;;;;;;20.40;56.20;;;;;;5139559;27;20252;-54
2022/08/17 06:16:10;;;;;;;;;;;21.20;58.00;;;;;;5125901;27;19923;-44
2022/08/17 06:18:40;;;;;;;;;;;21.60;56.40;;;;;;5127035;27;20309;-45
2022/08/17 06:21:06;;;;;;;;;;;20.80;54.90;;;;;;5127029;27;19923;-46
2022/08/17 06:23:36;;;;;;;;;;;20.30;54.10;;;;;;5126960;27;20359;-45
2022/08/17 06:26:04;;;;;;;;;;;20.30;52.70;;;;;;5126648;27;19971;-46
2022/08/17 06:28:33;;;;;;;;;;;20.00;52.10;;;;;;5126914;27;20559;-48
2022/08/17 06:31:01;;;;;;;;;;;20.00;51.80;;;;;;5124341;27;19955;-51
2022/08/17 06:33:34;;;;;;;;;;;19.70;51.70;;;;;;5129996;27;19929;-47
2022/08/17 06:36:06;;;;;;;;;;;20.30;57.10;;;;;;5126814;27;19926;-46
2022/08/17 06:38:36;;;;;;;;;;;21.10;58.40;;;;;;5149645;27;19923;-53
2022/08/17 06:41:21;;;;;;;;;;;21.80;56.50;;;;;;5148313;27;20050;-45
2022/08/17 06:43:56;;;;;;;;;;;21.00;54.70;;;;;;5145096;27;19937;-48
2022/08/17 06:46:34;;;;;;;;;;;20.50;53.40;;;;;;5118813;27;20390;-54
2022/08/17 06:49:06;;;;;;;;;;;20.30;52.80;;;;;;5148593;27;19927;-46
2022/08/17 06:51:44;;;;;;;;;;;20.20;52.00;;;;;;5141635;27;19927;-46
2022/08/17 06:54:13;;;;;;;;;;;19.90;51.50;;;;;;5145625;27;19974;-55
2022/08/17 06:56:44;;;;;;;;;;;19.80;51.10;;;;;;5150566;27;20018;-46
2022/08/17 06:59:11;;;;;;;;;;;20.20;56.70;;;;;;5126515;27;20010;-48
2022/08/17 07:01:37;;;;;;;;;;;21.10;58.30;;;;;;5125982;27;19927;-49
2022/08/17 07:04:05;;;;;;;;;;;21.70;56.70;;;;;;5124051;27;20017;-47
2022/08/17 07:06:35;;;;;;;;;;;20.80;55.00;;;;;;5126275;27;20263;-45
2022/08/17 07:09:04;;;;;;;;;;;20.60;53.40;;;;;;5119919;27;20325;-49
2022/08/17 07:11:36;;;;;;;;;;;20.10;53.10;;;;;;5120507;27;20340;-47
2022/08/17 07:14:11;;;;;;;;;;;20.00;52.50;;;;;;5109227;27;19986;-46
2022/08/17 07:16:41;;;;;;;;;;;20.00;51.80;;;;;;5132001;27;19927;-45
2022/08/17 07:19:06;;;;;;;;;;;19.70;51.70;;;;;;5144541;27;19923;-45
2022/08/17 07:21:32;;;;;;;;;;;19.80;51.10;;;;;;5144753;27;20318;-45
2022/08/17 07:24:07;;;;;;;;;;;20.20;56.60;;;;;;5150041;27;19923;-47
2022/08/17 07:26:33;;;;;;;;;;;21.00;58.40;;;;;;5141095;27;19929;-47
2022/08/17 07:28:58;;;;;;;;;;;21.80;56.90;;;;;;5119450;27;19924;-56
2022/08/17 07:31:24;;;;;;;;;;;20.90;55.30;;;;;;5130303;27;19923;-44
2022/08/17 07:33:57;;;;;;;;;;;20.40;54.40;;;;;;5144345;27;19927;-44
2022/08/17 07:36:24;;;;;;;;;;;20.30;53.00;;;;;;5131346;27;19927;-46
2022/08/17 07:38:53;;;;;;;;;;;20.40;52.10;;;;;;5143866;27;20017;-45
2022/08/17 07:41:19;;;;;;;;;;;20.10;52.00;;;;;;5125321;27;19923;-44
2022/08/17 07:43:46;;;;;;;;;;;19.80;52.10;;;;;;5149032;27;19934;-49
2022/08/17 07:49:02;;;;;;;;;;;20.20;54.70;;;;;;5128027;27;20912;-45
2022/08/17 07:51:28;;;;;;;;;;;21.00;58.10;;;;;;5149218;27;19923;-45
2022/08/17 07:53:55;;;;;;;;;;;21.80;57.40;;;;;;5143938;27;19934;-46
2022/08/17 07:56:40;;;;;;;;;;;21.00;55.40;;;;;;5143848;27;20020;-45
2022/08/17 07:59:06;;;;;;;;;;;20.50;54.20;;;;;;5148072;27;20030;-46
2022/08/17 08:01:36;;;;;;;;;;;20.40;53.00;;;;;;5143982;27;19927;-47
2022/08/17 08:04:14;;;;;;;;;;;20.20;52.60;;;;;;5138673;27;19923;-50
2022/08/17 08:06:42;;;;;;;;;;;20.10;51.80;;;;;;5148447;27;20045;-45
2022/08/17 08:09:07;;;;;;;;;;;19.90;51.70;;;;;;5125252;27;19930;-45
2022/08/17 08:11:34;;;;;;;;;;;19.90;51.40;;;;;;5126444;27;19923;-55
2022/08/17 08:14:16;;;;;;;;;;;20.30;56.40;;;;;;5148271;27;19923;-46
2022/08/17 08:16:43;;;;;;;;;;;21.10;58.20;;;;;;5143430;27;19927;-45
2022/08/17 08:19:15;;;;;;;;;;;21.80;56.60;;;;;;5129743;27;19959;-57
2022/08/17 08:21:48;;;;;;;;;;;20.90;55.20;;;;;;5142790;27;19923;-45
2022/08/17 08:24:29;;;;;;;;;;;20.60;53.90;;;;;;5114444;27;19923;-47
2022/08/17 08:27:06;;;;;;;;;;;20.30;52.90;;;;;;5148059;27;20140;-54
2022/08/17 08:29:51;;;;;;;;;;;20.30;52.20;;;;;;5130524;27;19973;-47
2022/08/17 08:32:35;;;;;;;;;;;19.90;52.20;;;;;;5143114;27;19934;-46
2022/08/17 08:35:03;;;;;;;;;;;20.00;51.50;;;;;;5143317;27;20037;-48
2022/08/17 08:37:52;;;;;;;;;;;20.30;56.00;;;;;;5148797;27;20401;-47
2022/08/17 08:40:33;;;;;;;;;;;21.00;58.30;;;;;;5130874;27;19975;-47
2022/08/17 08:43:08;;;;;;;;;;;21.80;56.80;;;;;;5141605;27;21112;-45
2022/08/17 08:45:43;;;;;;;;;;;20.90;54.90;;;;;;5148393;27;19955;-48
2022/08/17 08:48:28;;;;;;;;;;;20.50;53.50;;;;;;5124503;27;20363;-45
2022/08/17 08:51:04;;;;;;;;;;;20.30;53.20;;;;;;5143022;27;20374;-44
2022/08/17 08:53:45;;;;;;;;;;;20.30;52.40;;;;;;5148319;27;19975;-44
2022/08/17 08:56:13;;;;;;;;;;;20.00;52.00;;;;;;5142623;27;20354;-47
2022/08/17 08:58:49;;;;;;;;;;;20.00;51.50;;;;;;5138989;27;19923;-46
2022/08/17 09:01:27;;;;;;;;;;;19.80;51.80;;;;;;5146868;27;20342;-46
2022/08/17 09:03:52;;;;;;;;;;;19.80;52.70;;;;;;5142533;27;19937;-46
2022/08/17 09:06:24;;;;;;;;;;;20.70;57.40;;;;;;5142995;27;19930;-49
2022/08/17 09:09:00;;;;;;;;;;;21.30;58.40;;;;;;5148257;27;19923;-48
2022/08/17 09:11:26;;;;;;;;;;;21.60;56.10;;;;;;5124009;27;19923;-45
2022/08/17 09:13:57;;;;;;;;;;;20.80;54.90;;;;;;5142274;27;20137;-49
2022/08/17 09:16:32;;;;;;;;;;;20.40;53.80;;;;;;5126353;27;19923;-51
2022/08/17 09:19:13;;;;;;;;;;;20.30;53.20;;;;;;5139955;27;20442;-45
2022/08/17 09:21:42;;;;;;;;;;;20.30;52.50;;;;;;5123865;27;19934;-44
2022/08/17 09:24:24;;;;;;;;;;;20.00;52.10;;;;;;5147760;27;19923;-45
2022/08/17 09:27:08;;;;;;;;;;;20.00;51.90;;;;;;5142443;27;20549;-47
2022/08/17 09:29:35;;;;;;;;;;;20.10;53.40;;;;;;5142419;27;19981;-49
2022/08/17 09:32:03;;;;;;;;;;;20.80;58.60;;;;;;5147850;27;19933;-46
2022/08/17 09:34:34;;;;;;;;;;;21.60;58.90;;;;;;5123512;27;22084;-50
2022/08/17 09:37:02;;;;;;;;;;;21.30;56.50;;;;;;5107836;27;19931;-46
2022/08/17 09:39:41;;;;;;;;;;;20.90;54.80;;;;;;5151683;27;19922;-44
2022/08/17 09:42:07;;;;;;;;;;;20.60;53.70;;;;;;5128136;27;20267;-45
2022/08/17 09:44:41;;;;;;;;;;;20.30;53.50;;;;;;5146396;27;20022;-44
2022/08/17 09:47:10;;;;;;;;;;;20.10;53.20;;;;;;5152016;27;20281;-48
2022/08/17 09:49:41;;;;;;;;;;;20.00;52.20;;;;;;5146328;27;19922;-48
2022/08/17 09:52:20;;;;;;;;;;;20.10;51.90;;;;;;5149523;27;19923;-56
2022/08/17 09:54:46;;;;;;;;;;;19.90;54.50;;;;;;5146723;27;19931;-49
2022/08/17 09:57:12;;;;;;;;;;;20.80;59.30;;;;;;5145937;27;19971;-47
2022/08/17 09:59:49;;;;;;;;;;;21.50;60.20;;;;;;5133236;27;20426;-46
2022/08/17 10:02:33;;;;;;;;;;;21.50;57.50;;;;;;5147210;27;19956;-45
2022/08/17 10:05:03;;;;;;;;;;;20.80;55.70;;;;;;5145944;27;19927;-45
2022/08/17 10:07:29;;;;;;;;;;;20.50;54.80;;;;;;5133101;27;20021;-46
2022/08/17 10:09:55;;;;;;;;;;;20.30;54.40;;;;;;5146048;27;19930;-51
2022/08/17 10:12:31;;;;;;;;;;;20.30;53.00;;;;;;5141783;27;20279;-49
2022/08/17 10:15:35;;;;;;;;;;;20.20;52.70;;;;;;5150429;27;20373;-46
2022/08/17 10:18:20;;;;;;;;;;;19.90;52.60;;;;;;5086789;28;19928;-47
2022/08/17 10:20:51;;;;;;;;;;;19.80;52.50;;;;;;5081508;28;19936;-51
2022/08/17 10:26:19;;;;;;;;;;;21.10;60.50;;;;;;5151179;27;19966;-47
2022/08/17 10:29:03;;;;;;;;;;;21.70;59.50;;;;;;5127219;27;19926;-47
2022/08/17 10:31:30;;;;;;;;;;;21.00;56.90;;;;;;5122049;27;19927;-47
2022/08/17 10:34:00;;;;;;;;;;;20.60;55.20;;;;;;5150390;27;19927;-45
2022/08/17 10:36:28;;;;;;;;;;;20.30;54.70;;;;;;5145363;27;19927;-44
2022/08/17 10:39:18;;;;;;;;;;;20.30;53.60;;;;;;5145195;27;19927;-46
2022/08/17 10:41:45;;;;;;;;;;;20.20;53.00;;;;;;5121603;27;20383;-45
2022/08/17 10:44:22;;;;;;;;;;;20.10;52.80;;;;;;5145098;27;19927;-46
2022/08/17 10:47:06;;;;;;;;;;;20.10;52.40;;;;;;5121182;27;19930;-46
2022/08/17 10:49:32;;;;;;;;;;;20.20;56.20;;;;;;5145580;27;20421;-47
2022/08/17 10:52:03;;;;;;;;;;;21.00;60.40;;;;;;5126097;27;19923;-47
2022/08/17 10:54:35;;;;;;;;;;;21.60;61.00;;;;;;5118688;27;20274;-47
2022/08/17 10:57:00;;;;;;;;;;;21.20;58.10;;;;;;5150629;27;20412;-49
2022/08/17 10:59:29;;;;;;;;;;;20.80;56.10;;;;;;5145018;27;19923;-47
2022/08/17 11:01:59;;;;;;;;;;;20.60;54.90;;;;;;5145091;27;19931;-54
2022/08/17 11:04:34;;;;;;;;;;;20.30;54.10;;;;;;5131848;27;19923;-48
2022/08/17 11:07:02;;;;;;;;;;;20.30;53.30;;;;;;5122953;27;20014;-46
2022/08/17 11:09:27;;;;;;;;;;;20.20;53.00;;;;;;5147493;27;20358;-53
2022/08/17 11:12:08;;;;;;;;;;;19.80;53.40;;;;;;5145059;27;19930;-48
2022/08/17 11:14:53;;;;;;;;;;;19.80;52.70;;;;;;5126215;27;19979;-47
2022/08/17 11:17:39;;;;;;;;;;;20.30;58.30;;;;;;5147387;27;19927;-52
2022/08/17 11:20:11;;;;;;;;;;;21.20;61.20;;;;;;5149792;27;20009;-48
2022/08/17 11:22:56;;;;;;;;;;;21.60;59.70;;;;;;5144426;27;19923;-47
2022/08/17 11:25:38;;;;;;;;;;;20.80;57.90;;;;;;5141250;27;20315;-45
2022/08/17 11:28:05;;;;;;;;;;;20.60;55.50;;;;;;5129297;27;19930;-46
2022/08/17 11:30:45;;;;;;;;;;;20.60;54.30;;;;;;5117468;27;20395;-44
2022/08/17 11:33:30;;;;;;;;;;;20.20;54.00;;;;;;5125855;27;20108;-47
2022/08/17 11:36:11;;;;;;;;;;;20.30;53.20;;;;;;5149611;27;20394;-47
2022/08/17 11:38:44;;;;;;;;;;;19.90;53.10;;;;;;5144014;27;20022;-47
2022/08/17 11:41:10;;;;;;;;;;;20.10;57.20;;;;;;5143919;27;20387;-46
2022/08/17 11:43:54;;;;;;;;;;;20.90;61.50;;;;;;5146151;27;19948;-49
2022/08/17 11:46:24;;;;;;;;;;;21.60;61.60;;;;;;5123293;27;19927;-48
2022/08/17 11:52:00;;;;;;;;;;;20.60;56.10;;;;;;5125873;27;19938;-46
2022/08/17 11:54:29;;;;;;;;;;;20.20;54.80;;;;;;5143729;27;19971;-49
2022/08/17 11:56:55;;;;;;;;;;;20.20;53.80;;;;;;5142858;27;20025;-47
2022/08/17 11:59:34;;;;;;;;;;;19.90;53.10;;;;;;5149221;27;20415;-49
2022/08/17 12:02:05;;;;;;;;;;;19.80;53.20;;;;;;5140347;27;19931;-48
2022/08/17 12:04:31;;;;;;;;;;;19.80;52.70;;;;;;5122575;27;19967;-45
2022/08/17 12:06:59;;;;;;;;;;;20.30;58.60;;;;;;5130441;27;20012;-48
2022/08/17 12:09:31;;;;;;;;;;;20.90;61.80;;;;;;5125100;27;19975;-46
2022/08/17 12:12:00;;;;;;;;;;;21.60;61.90;;;;;;5115631;27;19924;-47
2022/08/17 12:14:27;;;;;;;;;;;21.20;58.80;;;;;;5148814;27;20355;-49
2022/08/17 12:17:05;;;;;;;;;;;20.80;56.60;;;;;;5143250;27;19930;-47
2022/08/17 12:19:32;;;;;;;;;;;20.60;55.20;;;;;;5142395;27;20317;-48
2022/08/17 12:22:00;;;;;;;;;;;20.40;53.80;;;;;;5144125;27;19927;-47
2022/08/17 12:24:44;;;;;;;;;;;20.20;53.40;;;;;;5124471;27;20430;-47
2022/08/17 12:27:10;;;;;;;;;;;20.00;53.10;;;;;;5143239;27;19923;-52
2022/08/17 12:29:36;;;;;;;;;;;20.00;52.70;;;;;;5148740;27;19979;-47
2022/08/17 12:32:02;;;;;;;;;;;19.90;54.00;;;;;;5143099;27;19923;-46
2022/08/17 12:34:33;;;;;;;;;;;20.60;60.20;;;;;;5148440;27;19923;-47
2022/08/17 12:37:00;;;;;;;;;;;21.30;61.70;;;;;;5143001;27;19927;-46
2022/08/17 12:39:26;;;;;;;;;;;21.70;60.20;;;;;;5119578;27;19927;-52
2022/08/17 12:41:55;;;;;;;;;;;21.10;57.60;;;;;;5111775;27;19931;-45
2022/08/17 12:44:22;;;;;;;;;;;20.60;55.80;;;;;;5142774;27;19923;-45
2022/08/17 12:46:52;;;;;;;;;;;20.30;54.90;;;;;;5142792;27;20301;-46
2022/08/17 12:49:24;;;;;;;;;;;20.30;53.70;;;;;;5148333;27;20396;-45
2022/08/17 12:51:50;;;;;;;;;;;20.10;53.50;;;;;;5142582;27;19923;-45
2022/08/17 12:54:21;;;;;;;;;;;19.90;53.10;;;;;;5124044;27;20049;-46
2022/08/17 12:56:46;;;;;;;;;;;19.90;53.00;;;;;;5145332;27;20271;-49
2022/08/17 12:59:12;;;;;;;;;;;20.10;55.30;;;;;;5139777;27;19934;-47
2022/08/17 13:01:40;;;;;;;;;;;20.70;60.70;;;;;;5147860;27;20363;-47
2022/08/17 13:04:06;;;;;;;;;;;21.30;62.10;;;;;;5124108;27;20009;-45
2022/08/17 13:06:32;;;;;;;;;;;21.60;59.90;;;;;;5142495;27;19934;-45
2022/08/17 13:09:30;;;;;;;;;;;20.90;57.40;;;;;;5147798;27;19929;-45
2022/08/17 13:11:59;;;;;;;;;;;20.70;55.50;;;;;;5131294;27;19929;-45
2022/08/17 13:14:25;;;;;;;;;;;20.30;54.80;;;;;;5142044;27;20002;-49
2022/08/17 13:16:52;;;;;;;;;;;20.20;53.80;;;;;;5124318;27;20017;-46
2022/08/17 13:19:20;;;;;;;;;;;20.30;52.70;;;;;;5141585;27;19987;-45
2022/08/17 13:21:50;;;;;;;;;;;20.00;52.90;;;;;;5118365;27;20265;-47
2022/08/17 13:24:17;;;;;;;;;;;19.80;53.00;;;;;;5129404;27;19987;-46
2022/08/17 13:26:43;;;;;;;;;;;20.00;55.10;;;;;;5142567;27;19923;-47
2022/08/17 13:29:30;;;;;;;;;;;20.80;60.00;;;;;;5123935;27;20194;-47
2022/08/17 13:32:08;;;;;;;;;;;21.50;60.70;;;;;;5147820;27;19923;-46
2022/08/17 13:34:42;;;;;;;;;;;21.50;58.30;;;;;;5137531;27;19923;-47
2022/08/17 13:37:24;;;;;;;;;;;20.90;55.90;;;;;;5140997;27;19927;-46
2022/08/17 13:39:50;;;;;;;;;;;20.50;54.80;;;;;;5145610;27;20017;-47
2022/08/17 13:42:38;;;;;;;;;;;20.20;53.80;;;;;;5142315;27;20294;-44
2022/08/17 13:45:24;;;;;;;;;;;20.20;53.00;;;;;;5142063;27;19923;-46
2022/08/17 13:48:02;;;;;;;;;;;20.00;53.10;;;;;;5136597;27;19923;-45
2022/08/17 13:50:28;;;;;;;;;;;20.20;52.00;;;;;;5142161;27;19927;-45
2022/08/17 13:52:54;;;;;;;;;;;20.20;54.40;;;;;;5137626;27;20286;-52
2022/08/17 13:55:20;;;;;;;;;;;20.80;59.30;;;;;;5146035;27;19965;-47
2022/08/17 13:57:46;;;;;;;;;;;21.60;59.70;;;;;;5111037;27;19928;-45
2022/08/17 14:00:17;;;;;;;;;;;21.40;57.10;;;;;;5106504;27;20015;-47
2022/08/17 14:02:42;;;;;;;;;;;20.70;55.80;;;;;;5147571;27;20305;-46
2022/08/17 14:05:08;;;;;;;;;;;20.80;53.70;;;;;;5141869;27;19927;-46
2022/08/17 14:07:34;;;;;;;;;;;20.40;53.20;;;;;;5145867;27;19923;-56
2022/08/17 14:10:03;;;;;;;;;;;20.30;52.60;;;;;;5123499;27;19923;-47
2022/08/17 14:12:30;;;;;;;;;;;20.30;52.20;;;;;;5138622;27;19927;-48
2022/08/17 14:14:55;;;;;;;;;;;20.00;52.00;;;;;;5128583;27;19934;-47
2022/08/17 14:17:22;;;;;;;;;;;20.00;52.20;;;;;;5141728;27;19923;-45
2022/08/17 14:19:48;;;;;;;;;;;19.90;52.10;;;;;;5142444;27;19923;-46
2022/08/17 14:22:17;;;;;;;;;;;20.20;55.80;;;;;;5151062;27;19923;-50
2022/08/17 14:24:42;;;;;;;;;;;21.00;59.00;;;;;;5127098;27;19923;-48
2022/08/17 14:27:08;;;;;;;;;;;21.70;58.80;;;;;;5145649;27;19935;-47
2022/08/17 14:29:34;;;;;;;;;;;21.40;56.50;;;;;;5146419;27;19953;-46
2022/08/17 14:32:03;;;;;;;;;;;20.90;55.00;;;;;;5143938;27;20528;-45
2022/08/17 14:34:28;;;;;;;;;;;20.70;53.60;;;;;;5132543;27;20412;-46
2022/08/17 14:36:55;;;;;;;;;;;20.50;52.80;;;;;;5145432;27;20045;-46
2022/08/17 14:39:21;;;;;;;;;;;20.40;52.30;;;;;;5145287;27;20259;-45
2022/08/17 14:41:47;;;;;;;;;;;20.30;51.80;;;;;;5150711;27;19931;-48
2022/08/17 14:44:13;;;;;;;;;;;20.10;51.80;;;;;;5145172;27;20374;-46
2022/08/17 14:46:39;;;;;;;;;;;19.90;51.80;;;;;;5143694;27;20083;-47
2022/08/17 14:49:06;;;;;;;;;;;20.00;51.20;;;;;;5146825;27;19923;-46
2022/08/17 14:51:31;;;;;;;;;;;20.00;50.80;;;;;;5126050;27;20006;-47
2022/08/17 14:53:57;;;;;;;;;;;20.20;54.70;;;;;;5150457;27;20002;-49